sensor_id;sensor_type;location;lat;lon;timestamp;P1;durP1;ratioP1;P2;durP2;ratioP2
22040;SDS011;11184;52.444;13.578;2024-02-26T00:00:18;14.18;;;12.85;;
22040;SDS011;11184;52.444;13.578;2024-02-26T00:03:03;13.80;;;12.60;;
22040;SDS011;11184;52.444;13.578;2024-02-26T00:05:47;15.30;;;13.85;;
22040;SDS011;11184;52.444;13.578;2024-02-26T00:08:32;14.13;;;12.65;;
22040;SDS011;11184;52.444;13.578;2024-02-26T00:11:16;14.02;;;12.63;;
22040;SDS011;11184;52.444;13.578;2024-02-26T00:14:01;12.38;;;11.32;;
22040;SDS011;11184;52.444;13.578;2024-02-26T00:16:46;14.45;;;13.18;;
22040;SDS011;11184;52.444;13.578;2024-02-26T00:19:30;15.90;;;13.43;;
22040;SDS011;11184;52.444;13.578;2024-02-26T00:22:15;14.18;;;12.77;;
22040;SDS011;11184;52.444;13.578;2024-02-26T00:25:00;14.10;;;12.90;;
22040;SDS011;11184;52.444;13.578;2024-02-26T00:27:44;13.13;;;12.10;;
22040;SDS011;11184;52.444;13.578;2024-02-26T00:30:29;14.60;;;12.85;;
22040;SDS011;11184;52.444;13.578;2024-02-26T00:33:16;14.45;;;12.95;;
22040;SDS011;11184;52.444;13.578;2024-02-26T00:36:01;15.30;;;13.50;;
22040;SDS011;11184;52.444;13.578;2024-02-26T00:38:45;13.00;;;11.85;;
22040;SDS011;11184;52.444;13.578;2024-02-26T00:41:37;14.30;;;12.80;;
22040;SDS011;11184;52.444;13.578;2024-02-26T00:44:22;15.38;;;13.93;;
22040;SDS011;11184;52.444;13.578;2024-02-26T00:47:07;14.32;;;12.93;;
22040;SDS011;11184;52.444;13.578;2024-02-26T00:49:51;13.55;;;12.27;;
22040;SDS011;11184;52.444;13.578;2024-02-26T00:52:36;14.63;;;13.23;;
22040;SDS011;11184;52.444;13.578;2024-02-26T00:55:20;16.58;;;13.38;;
22040;SDS011;11184;52.444;13.578;2024-02-26T00:58:05;15.18;;;13.77;;
22040;SDS011;11184;52.444;13.578;2024-02-26T01:00:49;13.63;;;12.52;;
22040;SDS011;11184;52.444;13.578;2024-02-26T01:03:34;18.02;;;13.38;;
22040;SDS011;11184;52.444;13.578;2024-02-26T01:06:19;12.55;;;11.25;;
22040;SDS011;11184;52.444;13.578;2024-02-26T01:09:03;13.65;;;12.35;;
22040;SDS011;11184;52.444;13.578;2024-02-26T01:11:48;13.77;;;12.55;;
22040;SDS011;11184;52.444;13.578;2024-02-26T01:14:32;19.25;;;13.73;;
22040;SDS011;11184;52.444;13.578;2024-02-26T01:17:17;14.27;;;12.90;;
22040;SDS011;11184;52.444;13.578;2024-02-26T01:20:03;13.07;;;11.88;;
22040;SDS011;11184;52.444;13.578;2024-02-26T01:22:48;15.32;;;13.30;;
22040;SDS011;11184;52.444;13.578;2024-02-26T01:25:33;14.38;;;12.98;;
22040;SDS011;11184;52.444;13.578;2024-02-26T01:28:17;13.15;;;11.68;;
22040;SDS011;11184;52.444;13.578;2024-02-26T01:31:03;14.88;;;13.52;;
22040;SDS011;11184;52.444;13.578;2024-02-26T01:33:50;11.85;;;10.85;;
22040;SDS011;11184;52.444;13.578;2024-02-26T01:36:35;13.32;;;12.10;;
22040;SDS011;11184;52.444;13.578;2024-02-26T01:39:20;14.27;;;12.90;;
22040;SDS011;11184;52.444;13.578;2024-02-26T01:42:06;13.07;;;11.85;;
22040;SDS011;11184;52.444;13.578;2024-02-26T01:44:50;13.95;;;12.75;;
22040;SDS011;11184;52.444;13.578;2024-02-26T01:47:35;12.90;;;11.70;;
22040;SDS011;11184;52.444;13.578;2024-02-26T01:50:20;14.10;;;11.68;;
22040;SDS011;11184;52.444;13.578;2024-02-26T01:53:05;12.90;;;11.80;;
22040;SDS011;11184;52.444;13.578;2024-02-26T01:55:50;13.35;;;12.15;;
22040;SDS011;11184;52.444;13.578;2024-02-26T01:58:35;14.20;;;12.82;;
22040;SDS011;11184;52.444;13.578;2024-02-26T02:01:20;15.55;;;11.90;;
22040;SDS011;11184;52.444;13.578;2024-02-26T02:04:07;14.35;;;12.98;;
22040;SDS011;11184;52.444;13.578;2024-02-26T02:06:52;13.60;;;12.30;;
22040;SDS011;11184;52.444;13.578;2024-02-26T02:09:36;14.63;;;12.85;;
22040;SDS011;11184;52.444;13.578;2024-02-26T02:12:21;13.75;;;12.40;;
22040;SDS011;11184;52.444;13.578;2024-02-26T02:15:07;13.25;;;11.95;;
22040;SDS011;11184;52.444;13.578;2024-02-26T02:17:52;13.73;;;12.57;;
22040;SDS011;11184;52.444;13.578;2024-02-26T02:20:36;14.75;;;13.45;;
22040;SDS011;11184;52.444;13.578;2024-02-26T02:23:21;15.25;;;13.77;;
22040;SDS011;11184;52.444;13.578;2024-02-26T02:26:06;13.05;;;11.75;;
22040;SDS011;11184;52.444;13.578;2024-02-26T02:28:50;14.20;;;12.90;;
22040;SDS011;11184;52.444;13.578;2024-02-26T02:31:35;13.75;;;12.55;;
22040;SDS011;11184;52.444;13.578;2024-02-26T02:34:20;14.02;;;12.50;;
22040;SDS011;11184;52.444;13.578;2024-02-26T02:37:05;13.30;;;11.93;;
22040;SDS011;11184;52.444;13.578;2024-02-26T02:39:50;12.27;;;11.23;;
22040;SDS011;11184;52.444;13.578;2024-02-26T02:42:35;12.52;;;11.43;;
22040;SDS011;11184;52.444;13.578;2024-02-26T02:45:19;16.13;;;11.35;;
22040;SDS011;11184;52.444;13.578;2024-02-26T02:48:04;12.50;;;11.40;;
22040;SDS011;11184;52.444;13.578;2024-02-26T02:50:49;12.02;;;10.93;;
22040;SDS011;11184;52.444;13.578;2024-02-26T02:53:33;13.32;;;12.07;;
22040;SDS011;11184;52.444;13.578;2024-02-26T02:56:18;13.80;;;12.45;;
22040;SDS011;11184;52.444;13.578;2024-02-26T02:59:02;13.70;;;12.50;;
22040;SDS011;11184;52.444;13.578;2024-02-26T03:01:47;16.38;;;11.93;;
22040;SDS011;11184;52.444;13.578;2024-02-26T03:04:32;16.05;;;14.57;;
22040;SDS011;11184;52.444;13.578;2024-02-26T03:07:16;14.88;;;13.40;;
22040;SDS011;11184;52.444;13.578;2024-02-26T03:10:01;14.75;;;13.23;;
22040;SDS011;11184;52.444;13.578;2024-02-26T03:12:46;13.18;;;11.88;;
22040;SDS011;11184;52.444;13.578;2024-02-26T03:15:30;13.13;;;11.93;;
22040;SDS011;11184;52.444;13.578;2024-02-26T03:18:15;13.15;;;11.95;;
22040;SDS011;11184;52.444;13.578;2024-02-26T03:21:00;14.73;;;13.20;;
22040;SDS011;11184;52.444;13.578;2024-02-26T03:23:45;13.65;;;12.27;;
22040;SDS011;11184;52.444;13.578;2024-02-26T03:26:29;12.85;;;11.63;;
22040;SDS011;11184;52.444;13.578;2024-02-26T03:29:14;17.90;;;11.48;;
22040;SDS011;11184;52.444;13.578;2024-02-26T03:31:59;14.38;;;11.82;;
22040;SDS011;11184;52.444;13.578;2024-02-26T03:34:44;13.68;;;12.05;;
22040;SDS011;11184;52.444;13.578;2024-02-26T03:37:28;13.40;;;11.30;;
22040;SDS011;11184;52.444;13.578;2024-02-26T03:40:13;13.98;;;12.77;;
22040;SDS011;11184;52.444;13.578;2024-02-26T03:42:58;13.95;;;12.55;;
22040;SDS011;11184;52.444;13.578;2024-02-26T03:45:43;15.00;;;13.52;;
22040;SDS011;11184;52.444;13.578;2024-02-26T03:48:27;12.90;;;11.77;;
22040;SDS011;11184;52.444;13.578;2024-02-26T03:51:12;14.85;;;13.25;;
22040;SDS011;11184;52.444;13.578;2024-02-26T03:53:57;12.65;;;11.27;;
22040;SDS011;11184;52.444;13.578;2024-02-26T03:56:42;17.48;;;12.57;;
22040;SDS011;11184;52.444;13.578;2024-02-26T03:59:27;14.07;;;12.77;;
22040;SDS011;11184;52.444;13.578;2024-02-26T04:02:11;13.75;;;12.55;;
22040;SDS011;11184;52.444;13.578;2024-02-26T04:04:56;13.63;;;12.43;;
22040;SDS011;11184;52.444;13.578;2024-02-26T04:07:41;14.00;;;12.90;;
22040;SDS011;11184;52.444;13.578;2024-02-26T04:10:25;20.13;;;14.57;;
22040;SDS011;11184;52.444;13.578;2024-02-26T04:13:10;15.15;;;13.73;;
22040;SDS011;11184;52.444;13.578;2024-02-26T04:15:54;14.88;;;13.27;;
22040;SDS011;11184;52.444;13.578;2024-02-26T04:18:39;15.85;;;14.25;;
22040;SDS011;11184;52.444;13.578;2024-02-26T04:21:24;16.92;;;13.70;;
22040;SDS011;11184;52.444;13.578;2024-02-26T04:24:09;14.32;;;12.95;;
22040;SDS011;11184;52.444;13.578;2024-02-26T04:26:53;16.27;;;14.00;;
22040;SDS011;11184;52.444;13.578;2024-02-26T04:29:38;15.25;;;13.88;;
22040;SDS011;11184;52.444;13.578;2024-02-26T04:32:23;15.70;;;14.15;;
22040;SDS011;11184;52.444;13.578;2024-02-26T04:35:07;17.15;;;15.45;;
22040;SDS011;11184;52.444;13.578;2024-02-26T04:37:52;22.05;;;15.63;;
22040;SDS011;11184;52.444;13.578;2024-02-26T04:40:37;16.25;;;14.50;;
22040;SDS011;11184;52.444;13.578;2024-02-26T04:43:21;16.35;;;14.75;;
22040;SDS011;11184;52.444;13.578;2024-02-26T04:46:07;19.55;;;17.20;;
22040;SDS011;11184;52.444;13.578;2024-02-26T04:48:52;16.65;;;14.95;;
22040;SDS011;11184;52.444;13.578;2024-02-26T04:51:36;18.88;;;15.82;;
22040;SDS011;11184;52.444;13.578;2024-02-26T04:54:20;18.10;;;16.25;;
22040;SDS011;11184;52.444;13.578;2024-02-26T04:57:05;19.75;;;17.60;;
22040;SDS011;11184;52.444;13.578;2024-02-26T04:59:50;21.17;;;17.27;;
22040;SDS011;11184;52.444;13.578;2024-02-26T05:02:34;18.20;;;16.50;;
22040;SDS011;11184;52.444;13.578;2024-02-26T05:05:21;20.05;;;17.17;;
22040;SDS011;11184;52.444;13.578;2024-02-26T05:08:06;21.45;;;17.80;;
22040;SDS011;11184;52.444;13.578;2024-02-26T05:10:51;19.55;;;17.58;;
22040;SDS011;11184;52.444;13.578;2024-02-26T05:13:35;22.48;;;20.15;;
22040;SDS011;11184;52.444;13.578;2024-02-26T05:16:20;20.45;;;18.33;;
22040;SDS011;11184;52.444;13.578;2024-02-26T05:19:08;22.90;;;19.20;;
22040;SDS011;11184;52.444;13.578;2024-02-26T05:21:52;22.27;;;17.77;;
22040;SDS011;11184;52.444;13.578;2024-02-26T05:24:37;21.80;;;18.33;;
22040;SDS011;11184;52.444;13.578;2024-02-26T05:27:22;25.17;;;20.17;;
22040;SDS011;11184;52.444;13.578;2024-02-26T05:30:07;22.92;;;18.90;;
22040;SDS011;11184;52.444;13.578;2024-02-26T05:32:52;23.88;;;20.98;;
22040;SDS011;11184;52.444;13.578;2024-02-26T05:35:37;26.38;;;20.73;;
22040;SDS011;11184;52.444;13.578;2024-02-26T05:38:22;24.63;;;20.35;;
22040;SDS011;11184;52.444;13.578;2024-02-26T05:41:06;25.20;;;21.50;;
22040;SDS011;11184;52.444;13.578;2024-02-26T05:43:52;22.80;;;20.17;;
22040;SDS011;11184;52.444;13.578;2024-02-26T05:46:37;23.65;;;21.15;;
22040;SDS011;11184;52.444;13.578;2024-02-26T05:49:22;29.20;;;21.38;;
22040;SDS011;11184;52.444;13.578;2024-02-26T05:52:07;23.92;;;20.45;;
22040;SDS011;11184;52.444;13.578;2024-02-26T05:54:52;26.20;;;22.17;;
22040;SDS011;11184;52.444;13.578;2024-02-26T05:57:36;24.77;;;20.92;;
22040;SDS011;11184;52.444;13.578;2024-02-26T06:00:21;26.83;;;22.05;;
22040;SDS011;11184;52.444;13.578;2024-02-26T06:03:06;26.70;;;22.17;;
22040;SDS011;11184;52.444;13.578;2024-02-26T06:05:51;26.30;;;22.77;;
22040;SDS011;11184;52.444;13.578;2024-02-26T06:08:35;31.33;;;24.60;;
22040;SDS011;11184;52.444;13.578;2024-02-26T06:11:20;27.23;;;22.92;;
22040;SDS011;11184;52.444;13.578;2024-02-26T06:14:06;29.33;;;21.77;;
22040;SDS011;11184;52.444;13.578;2024-02-26T06:16:50;30.65;;;23.60;;
22040;SDS011;11184;52.444;13.578;2024-02-26T06:19:35;27.83;;;22.60;;
22040;SDS011;11184;52.444;13.578;2024-02-26T06:22:20;27.80;;;23.05;;
22040;SDS011;11184;52.444;13.578;2024-02-26T06:25:04;35.58;;;24.95;;
22040;SDS011;11184;52.444;13.578;2024-02-26T06:27:49;29.85;;;24.52;;
22040;SDS011;11184;52.444;13.578;2024-02-26T06:30:34;28.85;;;23.15;;
22040;SDS011;11184;52.444;13.578;2024-02-26T06:33:18;33.15;;;25.17;;
22040;SDS011;11184;52.444;13.578;2024-02-26T06:36:03;32.83;;;24.63;;
22040;SDS011;11184;52.444;13.578;2024-02-26T06:38:48;33.50;;;26.85;;
22040;SDS011;11184;52.444;13.578;2024-02-26T06:41:33;31.63;;;23.85;;
22040;SDS011;11184;52.444;13.578;2024-02-26T06:44:17;34.95;;;26.27;;
22040;SDS011;11184;52.444;13.578;2024-02-26T06:47:02;34.83;;;25.58;;
22040;SDS011;11184;52.444;13.578;2024-02-26T06:49:47;31.23;;;25.17;;
22040;SDS011;11184;52.444;13.578;2024-02-26T06:52:32;36.20;;;25.70;;
22040;SDS011;11184;52.444;13.578;2024-02-26T06:55:16;31.90;;;25.23;;
22040;SDS011;11184;52.444;13.578;2024-02-26T06:58:01;37.35;;;27.05;;
22040;SDS011;11184;52.444;13.578;2024-02-26T07:00:45;35.08;;;26.35;;
22040;SDS011;11184;52.444;13.578;2024-02-26T07:03:30;37.10;;;27.20;;
22040;SDS011;11184;52.444;13.578;2024-02-26T07:06:16;41.78;;;28.83;;
22040;SDS011;11184;52.444;13.578;2024-02-26T07:09:01;33.33;;;24.83;;
22040;SDS011;11184;52.444;13.578;2024-02-26T07:11:46;38.50;;;27.98;;
22040;SDS011;11184;52.444;13.578;2024-02-26T07:14:30;32.72;;;26.35;;
22040;SDS011;11184;52.444;13.578;2024-02-26T07:17:16;31.70;;;25.55;;
22040;SDS011;11184;52.444;13.578;2024-02-26T07:20:00;35.20;;;27.20;;
22040;SDS011;11184;52.444;13.578;2024-02-26T07:22:48;39.78;;;27.40;;
22040;SDS011;11184;52.444;13.578;2024-02-26T07:25:32;40.55;;;27.02;;
22040;SDS011;11184;52.444;13.578;2024-02-26T07:28:17;35.58;;;28.67;;
22040;SDS011;11184;52.444;13.578;2024-02-26T07:31:02;34.97;;;27.35;;
22040;SDS011;11184;52.444;13.578;2024-02-26T07:33:46;34.97;;;27.45;;
22040;SDS011;11184;52.444;13.578;2024-02-26T07:36:31;31.70;;;25.08;;
22040;SDS011;11184;52.444;13.578;2024-02-26T07:39:16;32.33;;;26.63;;
22040;SDS011;11184;52.444;13.578;2024-02-26T07:42:01;47.80;;;29.13;;
22040;SDS011;11184;52.444;13.578;2024-02-26T07:44:45;36.65;;;28.42;;
22040;SDS011;11184;52.444;13.578;2024-02-26T07:47:30;38.25;;;29.90;;
22040;SDS011;11184;52.444;13.578;2024-02-26T07:50:18;38.42;;;29.40;;
22040;SDS011;11184;52.444;13.578;2024-02-26T07:53:03;35.78;;;28.33;;
22040;SDS011;11184;52.444;13.578;2024-02-26T07:55:48;38.30;;;27.23;;
22040;SDS011;11184;52.444;13.578;2024-02-26T07:58:32;38.65;;;26.23;;
22040;SDS011;11184;52.444;13.578;2024-02-26T08:01:17;34.05;;;25.70;;
22040;SDS011;11184;52.444;13.578;2024-02-26T08:04:02;36.67;;;29.55;;
22040;SDS011;11184;52.444;13.578;2024-02-26T08:06:46;35.45;;;26.75;;
22040;SDS011;11184;52.444;13.578;2024-02-26T08:09:31;31.48;;;27.17;;
22040;SDS011;11184;52.444;13.578;2024-02-26T08:12:17;35.88;;;29.40;;
22040;SDS011;11184;52.444;13.578;2024-02-26T08:15:01;33.47;;;27.58;;
22040;SDS011;11184;52.444;13.578;2024-02-26T08:17:46;36.03;;;26.90;;
22040;SDS011;11184;52.444;13.578;2024-02-26T08:20:31;31.00;;;24.65;;
22040;SDS011;11184;52.444;13.578;2024-02-26T08:23:16;35.10;;;26.63;;
22040;SDS011;11184;52.444;13.578;2024-02-26T08:26:01;33.90;;;25.88;;
22040;SDS011;11184;52.444;13.578;2024-02-26T08:28:47;37.28;;;27.67;;
22040;SDS011;11184;52.444;13.578;2024-02-26T08:31:35;29.25;;;23.75;;
22040;SDS011;11184;52.444;13.578;2024-02-26T08:34:21;31.58;;;23.63;;
22040;SDS011;11184;52.444;13.578;2024-02-26T08:37:05;35.65;;;25.92;;
22040;SDS011;11184;52.444;13.578;2024-02-26T08:39:51;31.75;;;24.42;;
22040;SDS011;11184;52.444;13.578;2024-02-26T08:42:35;29.13;;;23.48;;
22040;SDS011;11184;52.444;13.578;2024-02-26T08:45:20;28.20;;;22.27;;
22040;SDS011;11184;52.444;13.578;2024-02-26T08:48:05;26.98;;;23.38;;
22040;SDS011;11184;52.444;13.578;2024-02-26T08:50:50;26.67;;;21.42;;
22040;SDS011;11184;52.444;13.578;2024-02-26T08:53:38;29.45;;;22.63;;
22040;SDS011;11184;52.444;13.578;2024-02-26T08:56:23;32.47;;;24.10;;
22040;SDS011;11184;52.444;13.578;2024-02-26T08:59:08;29.20;;;22.50;;
22040;SDS011;11184;52.444;13.578;2024-02-26T09:01:53;29.48;;;22.67;;
22040;SDS011;11184;52.444;13.578;2024-02-26T09:04:38;27.02;;;21.08;;
22040;SDS011;11184;52.444;13.578;2024-02-26T09:07:23;28.65;;;23.00;;
22040;SDS011;11184;52.444;13.578;2024-02-26T09:10:08;26.23;;;21.58;;
22040;SDS011;11184;52.444;13.578;2024-02-26T09:12:54;28.60;;;23.33;;
22040;SDS011;11184;52.444;13.578;2024-02-26T09:15:39;28.58;;;21.80;;
22040;SDS011;11184;52.444;13.578;2024-02-26T09:18:23;30.38;;;23.67;;
22040;SDS011;11184;52.444;13.578;2024-02-26T09:21:08;26.88;;;21.88;;
22040;SDS011;11184;52.444;13.578;2024-02-26T09:23:52;34.22;;;22.60;;
22040;SDS011;11184;52.444;13.578;2024-02-26T09:26:37;28.15;;;21.60;;
22040;SDS011;11184;52.444;13.578;2024-02-26T09:29:22;25.70;;;21.48;;
22040;SDS011;11184;52.444;13.578;2024-02-26T09:32:07;31.00;;;23.83;;
22040;SDS011;11184;52.444;13.578;2024-02-26T09:34:51;29.42;;;20.52;;
22040;SDS011;11184;52.444;13.578;2024-02-26T09:37:36;26.30;;;21.25;;
22040;SDS011;11184;52.444;13.578;2024-02-26T09:40:21;24.70;;;21.77;;
22040;SDS011;11184;52.444;13.578;2024-02-26T09:43:05;28.35;;;21.60;;
22040;SDS011;11184;52.444;13.578;2024-02-26T09:45:54;26.80;;;21.10;;
22040;SDS011;11184;52.444;13.578;2024-02-26T09:48:39;27.92;;;22.27;;
22040;SDS011;11184;52.444;13.578;2024-02-26T09:51:25;23.05;;;20.55;;
22040;SDS011;11184;52.444;13.578;2024-02-26T09:54:10;25.73;;;22.70;;
22040;SDS011;11184;52.444;13.578;2024-02-26T09:56:56;23.88;;;20.10;;
22040;SDS011;11184;52.444;13.578;2024-02-26T09:59:42;21.70;;;19.58;;
22040;SDS011;11184;52.444;13.578;2024-02-26T10:02:28;25.23;;;21.23;;
22040;SDS011;11184;52.444;13.578;2024-02-26T10:05:12;29.90;;;21.27;;
22040;SDS011;11184;52.444;13.578;2024-02-26T10:08:00;24.83;;;20.02;;
22040;SDS011;11184;52.444;13.578;2024-02-26T10:10:45;30.48;;;19.20;;
22040;SDS011;11184;52.444;13.578;2024-02-26T10:13:30;24.23;;;19.40;;
22040;SDS011;11184;52.444;13.578;2024-02-26T10:16:15;23.92;;;19.58;;
22040;SDS011;11184;52.444;13.578;2024-02-26T10:19:00;19.17;;;17.25;;
22040;SDS011;11184;52.444;13.578;2024-02-26T10:21:45;21.25;;;16.05;;
22040;SDS011;11184;52.444;13.578;2024-02-26T10:24:30;18.83;;;15.82;;
22040;SDS011;11184;52.444;13.578;2024-02-26T10:27:15;17.95;;;15.50;;
22040;SDS011;11184;52.444;13.578;2024-02-26T10:30:03;19.15;;;15.18;;
22040;SDS011;11184;52.444;13.578;2024-02-26T10:32:48;15.55;;;13.38;;
22040;SDS011;11184;52.444;13.578;2024-02-26T10:35:33;18.63;;;14.35;;
22040;SDS011;11184;52.444;13.578;2024-02-26T10:38:21;14.80;;;12.55;;
22040;SDS011;11184;52.444;13.578;2024-02-26T10:41:07;15.05;;;11.25;;
22040;SDS011;11184;52.444;13.578;2024-02-26T10:43:54;14.80;;;11.93;;
22040;SDS011;11184;52.444;13.578;2024-02-26T10:46:42;13.77;;;11.88;;
22040;SDS011;11184;52.444;13.578;2024-02-26T10:49:26;20.55;;;12.43;;
22040;SDS011;11184;52.444;13.578;2024-02-26T10:52:11;18.00;;;12.02;;
22040;SDS011;11184;52.444;13.578;2024-02-26T10:54:56;15.25;;;11.10;;
22040;SDS011;11184;52.444;13.578;2024-02-26T10:57:41;11.00;;;10.02;;
22040;SDS011;11184;52.444;13.578;2024-02-26T11:00:29;11.93;;;10.57;;
22040;SDS011;11184;52.444;13.578;2024-02-26T11:03:14;12.55;;;9.60;;
22040;SDS011;11184;52.444;13.578;2024-02-26T11:06:04;14.40;;;12.45;;
22040;SDS011;11184;52.444;13.578;2024-02-26T11:08:52;11.50;;;10.05;;
22040;SDS011;11184;52.444;13.578;2024-02-26T11:11:37;11.45;;;9.65;;
22040;SDS011;11184;52.444;13.578;2024-02-26T11:14:21;11.07;;;10.07;;
22040;SDS011;11184;52.444;13.578;2024-02-26T11:17:09;12.13;;;10.65;;
22040;SDS011;11184;52.444;13.578;2024-02-26T11:19:57;15.90;;;10.63;;
22040;SDS011;11184;52.444;13.578;2024-02-26T11:22:42;10.40;;;9.32;;
22040;SDS011;11184;52.444;13.578;2024-02-26T11:25:27;11.93;;;9.50;;
22040;SDS011;11184;52.444;13.578;2024-02-26T11:28:12;8.98;;;8.07;;
22040;SDS011;11184;52.444;13.578;2024-02-26T11:30:58;12.80;;;9.30;;
22040;SDS011;11184;52.444;13.578;2024-02-26T11:33:43;13.68;;;10.85;;
22040;SDS011;11184;52.444;13.578;2024-02-26T11:36:28;11.80;;;8.57;;
22040;SDS011;11184;52.444;13.578;2024-02-26T11:39:13;10.05;;;7.53;;
22040;SDS011;11184;52.444;13.578;2024-02-26T11:42:09;15.57;;;8.45;;
22040;SDS011;11184;52.444;13.578;2024-02-26T11:44:55;17.85;;;8.23;;
22040;SDS011;11184;52.444;13.578;2024-02-26T11:47:43;13.35;;;8.15;;
22040;SDS011;11184;52.444;13.578;2024-02-26T11:50:41;11.25;;;9.02;;
22040;SDS011;11184;52.444;13.578;2024-02-26T11:53:26;12.60;;;8.85;;
22040;SDS011;11184;52.444;13.578;2024-02-26T11:56:12;9.52;;;8.10;;
22040;SDS011;11184;52.444;13.578;2024-02-26T11:58:58;9.30;;;8.30;;
22040;SDS011;11184;52.444;13.578;2024-02-26T12:01:44;9.23;;;7.30;;
22040;SDS011;11184;52.444;13.578;2024-02-26T12:04:31;14.10;;;8.02;;
22040;SDS011;11184;52.444;13.578;2024-02-26T12:07:15;8.80;;;7.38;;
22040;SDS011;11184;52.444;13.578;2024-02-26T12:10:14;8.60;;;7.55;;
22040;SDS011;11184;52.444;13.578;2024-02-26T12:13:00;8.38;;;7.55;;
22040;SDS011;11184;52.444;13.578;2024-02-26T12:15:55;8.25;;;7.22;;
22040;SDS011;11184;52.444;13.578;2024-02-26T12:18:40;12.77;;;8.40;;
22040;SDS011;11184;52.444;13.578;2024-02-26T12:21:25;8.25;;;7.45;;
22040;SDS011;11184;52.444;13.578;2024-02-26T12:24:10;11.27;;;8.02;;
22040;SDS011;11184;52.444;13.578;2024-02-26T12:26:55;8.10;;;7.30;;
22040;SDS011;11184;52.444;13.578;2024-02-26T12:29:41;9.15;;;7.90;;
22040;SDS011;11184;52.444;13.578;2024-02-26T12:32:26;8.98;;;6.35;;
22040;SDS011;11184;52.444;13.578;2024-02-26T12:35:10;8.25;;;7.45;;
22040;SDS011;11184;52.444;13.578;2024-02-26T12:37:55;9.35;;;7.15;;
22040;SDS011;11184;52.444;13.578;2024-02-26T12:40:40;9.02;;;6.57;;
22040;SDS011;11184;52.444;13.578;2024-02-26T12:43:25;8.90;;;7.90;;
22040;SDS011;11184;52.444;13.578;2024-02-26T12:46:10;11.02;;;7.78;;
22040;SDS011;11184;52.444;13.578;2024-02-26T12:48:56;7.07;;;6.30;;
22040;SDS011;11184;52.444;13.578;2024-02-26T12:51:42;6.88;;;6.20;;
22040;SDS011;11184;52.444;13.578;2024-02-26T12:54:30;8.10;;;7.30;;
22040;SDS011;11184;52.444;13.578;2024-02-26T12:57:15;7.95;;;6.88;;
22040;SDS011;11184;52.444;13.578;2024-02-26T13:00:00;8.13;;;7.38;;
22040;SDS011;11184;52.444;13.578;2024-02-26T13:02:46;12.65;;;8.23;;
22040;SDS011;11184;52.444;13.578;2024-02-26T13:05:30;10.35;;;8.40;;
22040;SDS011;11184;52.444;13.578;2024-02-26T13:08:19;9.07;;;8.25;;
22040;SDS011;11184;52.444;13.578;2024-02-26T13:11:04;10.70;;;8.82;;
22040;SDS011;11184;52.444;13.578;2024-02-26T13:13:49;7.95;;;7.25;;
22040;SDS011;11184;52.444;13.578;2024-02-26T13:16:34;10.55;;;7.50;;
22040;SDS011;11184;52.444;13.578;2024-02-26T13:19:19;8.32;;;7.38;;
22040;SDS011;11184;52.444;13.578;2024-02-26T13:22:06;9.35;;;8.20;;
22040;SDS011;11184;52.444;13.578;2024-02-26T13:24:55;10.02;;;8.57;;
22040;SDS011;11184;52.444;13.578;2024-02-26T13:27:39;7.97;;;7.00;;
22040;SDS011;11184;52.444;13.578;2024-02-26T13:30:24;9.23;;;7.97;;
22040;SDS011;11184;52.444;13.578;2024-02-26T13:33:12;9.52;;;8.60;;
22040;SDS011;11184;52.444;13.578;2024-02-26T13:35:57;8.57;;;7.72;;
22040;SDS011;11184;52.444;13.578;2024-02-26T13:38:50;12.00;;;8.02;;
22040;SDS011;11184;52.444;13.578;2024-02-26T13:41:35;12.68;;;7.35;;
22040;SDS011;11184;52.444;13.578;2024-02-26T13:44:20;8.05;;;7.35;;
22040;SDS011;11184;52.444;13.578;2024-02-26T13:47:05;11.20;;;8.52;;
22040;SDS011;11184;52.444;13.578;2024-02-26T13:49:50;8.02;;;7.22;;
22040;SDS011;11184;52.444;13.578;2024-02-26T13:52:34;10.25;;;7.35;;
22040;SDS011;11184;52.444;13.578;2024-02-26T13:55:19;9.15;;;7.68;;
22040;SDS011;11184;52.444;13.578;2024-02-26T13:58:04;13.73;;;7.75;;
22040;SDS011;11184;52.444;13.578;2024-02-26T14:00:51;8.55;;;7.57;;
22040;SDS011;11184;52.444;13.578;2024-02-26T14:03:35;11.38;;;8.18;;
22040;SDS011;11184;52.444;13.578;2024-02-26T14:06:20;11.88;;;9.18;;
22040;SDS011;11184;52.444;13.578;2024-02-26T14:09:05;9.63;;;8.73;;
22040;SDS011;11184;52.444;13.578;2024-02-26T14:11:50;11.68;;;8.60;;
22040;SDS011;11184;52.444;13.578;2024-02-26T14:14:35;13.98;;;9.85;;
22040;SDS011;11184;52.444;13.578;2024-02-26T14:17:23;9.93;;;8.95;;
22040;SDS011;11184;52.444;13.578;2024-02-26T14:20:07;15.02;;;9.57;;
22040;SDS011;11184;52.444;13.578;2024-02-26T14:22:52;10.38;;;9.00;;
22040;SDS011;11184;52.444;13.578;2024-02-26T14:25:37;13.70;;;10.32;;
22040;SDS011;11184;52.444;13.578;2024-02-26T14:28:21;11.98;;;10.73;;
22040;SDS011;11184;52.444;13.578;2024-02-26T14:31:08;11.85;;;9.88;;
22040;SDS011;11184;52.444;13.578;2024-02-26T14:33:54;11.02;;;9.93;;
22040;SDS011;11184;52.444;13.578;2024-02-26T14:36:38;12.05;;;10.73;;
22040;SDS011;11184;52.444;13.578;2024-02-26T14:39:23;13.50;;;11.35;;
22040;SDS011;11184;52.444;13.578;2024-02-26T14:42:07;13.57;;;12.18;;
22040;SDS011;11184;52.444;13.578;2024-02-26T14:44:52;12.68;;;10.75;;
22040;SDS011;11184;52.444;13.578;2024-02-26T14:47:37;12.13;;;10.85;;
22040;SDS011;11184;52.444;13.578;2024-02-26T14:50:21;11.93;;;10.73;;
22040;SDS011;11184;52.444;13.578;2024-02-26T14:53:06;14.77;;;11.85;;
22040;SDS011;11184;52.444;13.578;2024-02-26T14:55:50;15.52;;;11.75;;
22040;SDS011;11184;52.444;13.578;2024-02-26T14:58:35;13.60;;;11.40;;
22040;SDS011;11184;52.444;13.578;2024-02-26T15:01:21;12.90;;;11.52;;
22040;SDS011;11184;52.444;13.578;2024-02-26T15:04:06;16.48;;;12.77;;
22040;SDS011;11184;52.444;13.578;2024-02-26T15:06:51;13.43;;;12.10;;
22040;SDS011;11184;52.444;13.578;2024-02-26T15:09:37;14.15;;;11.35;;
22040;SDS011;11184;52.444;13.578;2024-02-26T15:12:21;13.27;;;11.93;;
22040;SDS011;11184;52.444;13.578;2024-02-26T15:15:06;16.45;;;11.57;;
22040;SDS011;11184;52.444;13.578;2024-02-26T15:17:51;15.55;;;11.93;;
22040;SDS011;11184;52.444;13.578;2024-02-26T15:20:36;14.73;;;11.38;;
22040;SDS011;11184;52.444;13.578;2024-02-26T15:23:20;14.52;;;12.30;;
22040;SDS011;11184;52.444;13.578;2024-02-26T15:26:05;12.18;;;10.98;;
22040;SDS011;11184;52.444;13.578;2024-02-26T15:28:50;12.65;;;11.10;;
22040;SDS011;11184;52.444;13.578;2024-02-26T15:31:35;16.58;;;12.63;;
22040;SDS011;11184;52.444;13.578;2024-02-26T15:34:20;11.80;;;10.45;;
22040;SDS011;11184;52.444;13.578;2024-02-26T15:37:04;11.50;;;10.27;;
22040;SDS011;11184;52.444;13.578;2024-02-26T15:39:49;13.82;;;12.00;;
22040;SDS011;11184;52.444;13.578;2024-02-26T15:42:34;18.77;;;11.07;;
22040;SDS011;11184;52.444;13.578;2024-02-26T15:45:19;17.25;;;12.15;;
22040;SDS011;11184;52.444;13.578;2024-02-26T15:48:04;14.70;;;12.40;;
22040;SDS011;11184;52.444;13.578;2024-02-26T15:50:48;13.25;;;11.98;;
22040;SDS011;11184;52.444;13.578;2024-02-26T15:53:33;13.30;;;11.40;;
22040;SDS011;11184;52.444;13.578;2024-02-26T15:56:18;16.40;;;13.13;;